Time;durP1;ratioP1;P1;durP2;ratioP2;P2;SDS_P1;SDS_P2;PMS_P1;PMS_P2;Temp;Humidity;BMP_temperature;BMP_pressure;BME280_temperature;BME280_humidity;BME280_pressure;Samples;Min_cycle;Max_cycle;Signal;HPM_P1;HPM_P2
2022/06/06 00:00:45;;;;;;;8.45;4.25;;;;;;;11.95;72.85;99366.69;5109598;27;20042;-68
2022/06/06 00:03:10;;;;;;;5.80;4.30;;;;;;;11.94;72.93;99372.16;5106221;27;20047;-67
2022/06/06 00:05:36;;;;;;;8.07;4.95;;;;;;;11.92;72.80;99366.09;5106515;27;20400;-67
2022/06/06 00:08:01;;;;;;;6.13;4.50;;;;;;;11.91;72.98;99364.38;5072238;27;20444;-69
2022/06/06 00:10:26;;;;;;;9.27;4.60;;;;;;;11.90;73.20;99362.69;5100717;27;20643;-67
2022/06/06 00:12:51;;;;;;;8.27;4.57;;;;;;;11.86;73.43;99366.56;5101247;27;20103;-67
2022/06/06 00:15:16;;;;;;;8.13;4.47;;;;;;;11.83;72.92;99359.69;5108052;27;20041;-66
2022/06/06 00:17:40;;;;;;;7.95;4.70;;;;;;;11.83;73.16;99370.34;5077530;27;20973;-67
2022/06/06 00:20:06;;;;;;;5.35;3.97;;;;;;;11.80;73.20;99364.41;5081566;27;20122;-66
2022/06/06 00:22:30;;;;;;;9.63;4.88;;;;;;;11.77;73.38;99362.81;5105557;27;20682;-65
2022/06/06 00:24:55;;;;;;;9.10;4.75;;;;;;;11.75;73.12;99358.53;5107235;27;20404;-67
2022/06/06 00:27:20;;;;;;;6.28;4.50;;;;;;;11.73;73.63;99358.69;5096596;27;20047;-67
2022/06/06 00:29:45;;;;;;;4.78;3.80;;;;;;;11.71;73.61;99357.97;5099156;27;20046;-66
2022/06/06 00:34:53;;;;;;;10.63;4.70;;;;;;;11.68;73.63;99358.19;5112813;27;20034;-71
2022/06/06 00:37:27;;;;;;;8.05;4.40;;;;;;;11.72;73.92;99370.34;5102720;27;20039;-73
2022/06/06 00:39:53;;;;;;;10.25;4.85;;;;;;;11.67;74.30;99366.34;5101638;27;20039;-72
2022/06/06 00:42:25;;;;;;;8.60;4.97;;;;;;;11.67;74.31;99364.50;5099910;27;20134;-72
2022/06/06 00:45:12;;;;;;;9.52;5.05;;;;;;;11.70;74.32;99372.28;5099815;27;20034;-70
2022/06/06 00:47:38;;;;;;;7.10;4.72;;;;;;;11.63;74.30;99373.72;5121340;27;20453;-73
2022/06/06 00:50:10;;;;;;;8.75;5.05;;;;;;;11.63;74.58;99381.72;5124263;27;20385;-74
2022/06/06 00:52:39;;;;;;;5.68;4.80;;;;;;;11.61;74.76;99386.38;5126883;27;20051;-67
2022/06/06 00:55:14;;;;;;;11.20;4.90;;;;;;;11.60;74.78;99376.66;5123488;27;20544;-69
2022/06/06 00:57:47;;;;;;;7.90;4.88;;;;;;;11.60;74.94;99382.84;5078306;27;20404;-68
2022/06/06 01:00:15;;;;;;;9.40;5.03;;;;;;;11.57;74.58;99383.09;5097931;27;20042;-74
2022/06/06 01:02:42;;;;;;;10.65;5.20;;;;;;;11.56;74.70;99375.19;5079604;27;20497;-75
2022/06/06 01:05:09;;;;;;;9.77;5.20;;;;;;;11.55;75.11;99378.84;5085288;27;20110;-76
2022/06/06 01:07:34;;;;;;;12.52;5.00;;;;;;;11.54;74.79;99375.31;5099883;27;20047;-65
2022/06/06 01:09:59;;;;;;;7.50;5.30;;;;;;;11.55;74.68;99373.50;5097441;27;20053;-65
2022/06/06 01:12:24;;;;;;;13.60;5.32;;;;;;;11.56;74.91;99376.06;5102888;27;20556;-64
2022/06/06 01:14:55;;;;;;;6.75;5.07;;;;;;;11.60;74.73;99374.00;5121182;27;20039;-65
2022/06/06 01:17:35;;;;;;;6.80;4.65;;;;;;;11.67;75.36;99377.84;5123592;27;20043;-66
2022/06/06 01:20:22;;;;;;;8.15;5.15;;;;;;;11.64;75.03;99376.28;5127119;27;20038;-65
2022/06/06 01:23:04;;;;;;;15.13;5.07;;;;;;;11.69;75.20;99365.25;5125640;27;20551;-65
2022/06/06 01:25:55;;;;;;;11.90;5.40;;;;;;;11.67;74.86;99377.84;5126643;27;20042;-65
2022/06/06 01:28:44;;;;;;;8.50;5.15;;;;;;;11.71;74.95;99370.47;5103376;27;20464;-64
2022/06/06 01:31:17;;;;;;;6.85;4.75;;;;;;;11.69;74.82;99369.72;5120524;27;20044;-65
2022/06/06 01:33:55;;;;;;;11.35;5.60;;;;;;;11.72;75.20;99364.16;5102317;27;20057;-65
2022/06/06 01:36:21;;;;;;;8.32;5.43;;;;;;;11.67;74.76;99367.19;5120438;27;20102;-64
2022/06/06 01:38:48;;;;;;;10.45;5.90;;;;;;;11.70;74.89;99364.28;5119459;27;20596;-66
2022/06/06 01:41:36;;;;;;;10.85;5.25;;;;;;;11.76;74.81;99368.28;5121794;27;20125;-65
2022/06/06 01:44:08;;;;;;;9.60;5.15;;;;;;;11.83;74.77;99366.84;5122256;27;20046;-65
2022/06/06 01:46:36;;;;;;;12.48;5.28;;;;;;;11.87;74.59;99371.78;5121156;27;20062;-65
2022/06/06 01:49:02;;;;;;;13.95;5.93;;;;;;;11.90;74.39;99366.22;5120851;27;20040;-65
2022/06/06 01:51:30;;;;;;;13.75;6.20;;;;;;;11.96;74.26;99365.69;5101306;27;20043;-68
2022/06/06 01:53:55;;;;;;;10.45;5.97;;;;;;;12.01;74.03;99373.34;5119350;27;20560;-67
2022/06/06 01:56:26;;;;;;;11.52;5.40;;;;;;;12.09;73.74;99373.56;5119619;27;20042;-64
2022/06/06 01:58:51;;;;;;;11.05;5.50;;;;;;;12.14;73.74;99370.53;5118944;27;20046;-65
2022/06/06 02:01:16;;;;;;;11.30;5.97;;;;;;;12.21;73.02;99369.03;5101181;27;20083;-65
2022/06/06 02:03:41;;;;;;;9.68;5.88;;;;;;;12.27;72.72;99366.72;5118650;27;20065;-65
2022/06/06 02:06:06;;;;;;;9.13;5.28;;;;;;;12.34;72.75;99372.38;5118818;27;20493;-66
2022/06/06 02:08:32;;;;;;;9.05;5.55;;;;;;;12.41;72.29;99375.41;5118920;27;20054;-65
2022/06/06 02:10:57;;;;;;;11.45;5.75;;;;;;;12.47;72.09;99367.72;5083680;27;20043;-65
2022/06/06 02:13:22;;;;;;;11.07;5.85;;;;;;;12.54;71.76;99374.25;5118854;27;20051;-65
2022/06/06 02:15:47;;;;;;;9.52;5.15;;;;;;;12.60;71.14;99370.22;5082972;27;20121;-66
2022/06/06 02:18:12;;;;;;;8.18;4.57;;;;;;;12.62;71.27;99366.44;5100293;27;20035;-66
2022/06/06 02:20:37;;;;;;;7.93;5.07;;;;;;;12.69;70.74;99372.97;5118370;27;20407;-67
2022/06/06 02:23:03;;;;;;;9.27;5.28;;;;;;;12.75;70.73;99365.41;5118731;27;20385;-64
2022/06/06 02:25:29;;;;;;;9.07;5.18;;;;;;;12.80;70.70;99368.53;5118323;27;20046;-67
2022/06/06 02:27:54;;;;;;;10.52;5.13;;;;;;;12.87;70.41;99369.69;5118370;27;20126;-68
2022/06/06 02:30:23;;;;;;;8.82;5.20;;;;;;;12.97;70.14;99376.84;5099969;27;20131;-65
2022/06/06 02:32:49;;;;;;;7.93;4.97;;;;;;;13.04;69.92;99378.00;5118394;27;20038;-64
2022/06/06 02:35:18;;;;;;;7.28;4.63;;;;;;;13.14;69.53;99382.53;5118788;27;20570;-67
2022/06/06 02:37:44;;;;;;;7.68;5.50;;;;;;;13.21;69.61;99379.22;5100567;27;20043;-72
2022/06/06 02:40:11;;;;;;;7.35;4.82;;;;;;;13.33;69.27;99380.84;5119220;27;20045;-65
2022/06/06 02:42:37;;;;;;;9.63;5.53;;;;;;;13.39;68.65;99377.66;5099864;27;20042;-64
2022/06/06 02:45:02;;;;;;;7.80;5.65;;;;;;;13.49;68.03;99376.84;5099493;27;20122;-62
2022/06/06 02:47:29;;;;;;;9.93;5.10;;;;;;;13.57;67.76;99380.53;5099773;27;20094;-63
2022/06/06 02:49:54;;;;;;;11.85;5.47;;;;;;;13.68;67.24;99382.25;5118253;27;20050;-69
2022/06/06 02:52:19;;;;;;;8.57;4.90;;;;;;;13.79;67.58;99390.19;5099036;27;20062;-71
2022/06/06 02:54:44;;;;;;;7.93;5.30;;;;;;;13.89;66.79;99388.41;5118145;27;20092;-72
2022/06/06 02:57:08;;;;;;;11.70;5.22;;;;;;;13.98;66.95;99382.25;5117869;27;20034;-72
2022/06/06 02:59:36;;;;;;;6.90;4.68;;;;;;;14.05;66.26;99399.44;5118018;27;20046;-71
2022/06/06 03:02:02;;;;;;;11.40;5.03;;;;;;;14.12;66.37;99389.88;5117092;27;20050;-70
2022/06/06 03:04:28;;;;;;;7.72;4.78;;;;;;;14.22;65.98;99392.56;5117059;27;20061;-72
2022/06/06 03:07:09;;;;;;;6.25;4.47;;;;;;;14.37;65.35;99395.69;5080194;27;20514;-70
2022/06/06 03:10:10;;;;;;;8.90;5.13;;;;;;;14.61;64.72;99392.63;5097229;27;20442;-71
2022/06/06 03:12:54;;;;;;;5.85;4.30;;;;;;;14.64;64.56;99403.09;5097843;27;20046;-70
2022/06/06 03:20:46;;;;;;;8.80;4.75;;;;;;;14.78;64.10;99400.84;5097704;27;20035;-71
2022/06/06 03:21:39;;;;;;;5.47;4.20;;;;;;;14.98;63.57;99412.41;5117264;27;20091;-71
2022/06/06 03:24:46;;;;;;;5.60;4.60;;;;;;;15.19;63.72;99409.53;5117374;27;20385;-71
2022/06/06 03:27:33;;;;;;;8.57;4.57;;;;;;;15.30;62.96;99404.00;5014156;28;20442;-72
2022/06/06 03:30:10;;;;;;;5.95;4.07;;;;;;;15.37;62.01;99402.41;5013598;28;20045;-71
2022/06/06 03:32:57;;;;;;;5.43;4.25;;;;;;;15.48;61.70;99398.69;4997614;28;20161;-71
2022/06/06 03:35:51;;;;;;;6.63;4.63;;;;;;;15.57;62.14;99398.72;4981069;28;20045;-71
2022/06/06 03:38:46;;;;;;;6.30;4.60;;;;;;;15.78;61.79;99394.94;5013709;28;20549;-71
2022/06/06 03:41:23;;;;;;;8.55;4.72;;;;;;;15.89;60.60;99406.34;5013213;28;20068;-71
2022/06/06 03:43:57;;;;;;;9.68;5.15;;;;;;;16.00;60.83;99397.25;5013578;28;20049;-71
2022/06/06 03:46:42;;;;;;;9.05;4.97;;;;;;;16.10;60.29;99399.88;5013580;28;20127;-72
2022/06/06 03:49:32;;;;;;;17.42;5.22;;;;;;;16.21;60.31;99413.97;5013627;28;20040;-71
2022/06/06 03:52:16;;;;;;;7.13;5.03;;;;;;;16.43;59.24;99407.28;5013648;28;20090;-71
2022/06/06 03:54:55;;;;;;;8.07;4.80;;;;;;;16.49;59.37;99416.59;5013162;28;20055;-70
2022/06/06 03:57:24;;;;;;;5.82;4.15;;;;;;;16.53;58.96;99409.91;5024331;27;20050;-71
2022/06/06 03:59:57;;;;;;;8.20;4.88;;;;;;;16.68;58.70;99411.13;5116697;27;20129;-71
2022/06/06 04:02:28;;;;;;;7.22;5.38;;;;;;;16.83;57.97;99393.41;5116465;27;20122;-72
2022/06/06 04:04:54;;;;;;;6.55;4.93;;;;;;;16.89;57.88;99386.56;5116156;27;20038;-71
2022/06/06 04:07:18;;;;;;;7.78;4.65;;;;;;;17.02;57.97;99382.47;5116279;27;20481;-70
2022/06/06 04:09:43;;;;;;;7.32;4.70;;;;;;;17.17;57.48;99395.34;5099647;27;20483;-71
2022/06/06 04:12:35;;;;;;;7.47;4.78;;;;;;;17.49;56.96;99400.13;5118259;27;20049;-72
2022/06/06 04:15:12;;;;;;;7.35;4.85;;;;;;;17.55;56.29;99400.31;5099201;27;20035;-72
2022/06/06 04:17:57;;;;;;;11.07;5.47;;;;;;;17.71;55.94;99400.44;5065741;27;20039;-74
2022/06/06 04:20:36;;;;;;;9.57;4.40;;;;;;;17.89;55.35;99407.59;5116874;27;20038;-72
2022/06/06 04:23:39;;;;;;;7.80;4.97;;;;;;;18.02;54.62;99405.28;5116865;27;20038;-73
2022/06/06 04:26:13;;;;;;;8.18;4.03;;;;;;;18.18;54.86;99399.09;5013685;28;20057;-74
2022/06/06 04:28:53;;;;;;;7.00;4.63;;;;;;;18.35;54.26;99415.19;5012669;28;20094;-73
2022/06/06 04:31:31;;;;;;;7.75;5.05;;;;;;;18.41;53.82;99414.50;4996030;28;20315;-71
2022/06/06 04:34:19;;;;;;;7.45;5.22;;;;;;;18.62;53.63;99416.81;4996705;28;20060;-71
2022/06/06 04:37:07;;;;;;;12.43;5.50;;;;;;;18.91;53.02;99420.88;4999389;28;20049;-73
2022/06/06 04:39:58;;;;;;;11.80;5.18;;;;;;;19.13;52.72;99426.44;4996968;28;20056;-72
2022/06/06 04:42:42;;;;;;;9.90;4.90;;;;;;;19.33;52.14;99426.94;4996507;28;20045;-72
2022/06/06 04:45:24;;;;;;;8.05;5.03;;;;;;;19.68;51.66;99424.88;4996836;28;20056;-74
2022/06/06 04:47:50;;;;;;;10.30;5.57;;;;;;;20.13;50.58;99424.19;5013260;28;20106;-74
2022/06/06 04:50:18;;;;;;;7.00;5.20;;;;;;;20.57;49.72;99435.34;4964424;28;20073;-73
2022/06/06 04:52:53;;;;;;;6.60;4.40;;;;;;;20.86;47.32;99432.78;4981006;28;20525;-73
2022/06/06 04:55:19;;;;;;;6.25;4.80;;;;;;;20.99;46.95;99433.00;5012984;28;20072;-74
2022/06/06 04:57:51;;;;;;;6.45;4.90;;;;;;;21.18;46.42;99439.84;5012990;28;20571;-73
2022/06/06 05:00:16;;;;;;;6.15;4.45;;;;;;;21.28;46.40;99436.88;5012815;28;20063;-74
2022/06/06 05:02:42;;;;;;;11.60;5.00;;;;;;;21.48;45.79;99443.47;5039273;27;20052;-72
2022/06/06 05:05:07;;;;;;;10.82;5.82;;;;;;;21.82;45.56;99451.09;5116676;27;20066;-72
2022/06/06 05:07:59;;;;;;;8.60;4.47;;;;;;;22.19;44.90;99444.75;5116072;27;20046;-72
2022/06/06 05:11:05;;;;;;;7.22;4.43;;;;;;;22.58;44.35;99444.38;5083064;27;20042;-72
2022/06/06 05:13:47;;;;;;;7.13;4.47;;;;;;;22.99;42.84;99446.56;5111446;27;20110;-72
2022/06/06 05:16:47;;;;;;;5.75;4.25;;;;;;;23.28;41.70;99448.28;5083983;27;20042;-71
2022/06/06 05:19:30;;;;;;;6.22;4.63;;;;;;;23.42;41.77;99448.19;5103398;27;20038;-71
2022/06/06 05:22:08;;;;;;;8.10;4.40;;;;;;;23.55;40.94;99454.81;5085993;27;20150;-72
2022/06/06 05:24:56;;;;;;;6.20;4.45;;;;;;;23.56;40.62;99456.50;5122059;27;20520;-71
2022/06/06 05:27:44;;;;;;;10.05;6.10;;;;;;;23.75;41.22;99458.53;5104018;27;20406;-72
2022/06/06 05:30:47;;;;;;;6.47;4.57;;;;;;;23.87;40.62;99454.22;5121815;27;20045;-72
2022/06/06 05:33:24;;;;;;;5.47;4.72;;;;;;;24.21;40.16;99461.53;4980839;28;20071;-70
2022/06/06 05:35:49;;;;;;;7.38;4.90;;;;;;;24.42;39.90;99461.47;4980735;28;20056;-71
2022/06/06 05:38:40;;;;;;;13.20;4.70;;;;;;;24.74;38.11;99456.31;4998893;28;20056;-72
2022/06/06 05:41:43;;;;;;;7.43;4.72;;;;;;;24.92;38.65;99457.47;5026363;28;20037;-70
2022/06/06 05:44:37;;;;;;;8.27;5.63;;;;;;;25.17;36.64;99462.34;4968825;28;20072;-71
2022/06/06 05:47:37;;;;;;;7.30;5.10;;;;;;;25.45;36.86;99460.25;4962764;28;20062;-70
2022/06/06 05:50:38;;;;;;;11.05;4.65;;;;;;;25.72;36.89;99460.28;4961204;28;20076;-71
2022/06/06 05:53:08;;;;;;;11.52;5.57;;;;;;;26.17;35.73;99458.50;4945728;28;20708;-71
2022/06/06 05:55:51;;;;;;;8.77;5.43;;;;;;;26.50;34.97;99462.00;4979164;28;20413;-71
2022/06/06 05:58:35;;;;;;;10.27;5.55;;;;;;;27.00;34.28;99454.81;4977908;28;20575;-69
2022/06/06 06:01:13;;;;;;;6.43;4.82;;;;;;;27.74;33.19;99464.19;4964305;28;20045;-66
2022/06/06 06:04:03;;;;;;;6.43;4.40;;;;;;;28.01;31.68;99470.22;4993181;28;20044;-68
2022/06/06 06:06:49;;;;;;;8.20;4.85;;;;;;;28.49;31.96;99464.88;5043633;28;20070;-69
2022/06/06 06:10:05;;;;;;;6.03;4.90;;;;;;;29.16;31.09;99462.91;5064872;28;20043;-70
2022/06/06 06:13:14;;;;;;;5.50;4.72;;;;;;;30.12;29.38;99464.50;5002658;28;20053;-72
2022/06/06 06:15:41;;;;;;;7.25;4.57;;;;;;;31.08;27.25;99471.19;5013446;28;20049;-72
2022/06/06 06:18:13;;;;;;;5.90;4.47;;;;;;;31.61;26.48;99468.84;5013792;28;20048;-70
2022/06/06 06:20:45;;;;;;;6.30;4.53;;;;;;;32.16;26.18;99473.59;5018948;28;20045;-70
2022/06/06 06:23:15;;;;;;;4.95;4.55;;;;;;;32.71;24.74;99472.72;5002085;28;20041;-71
2022/06/06 06:25:44;;;;;;;7.40;4.72;;;;;;;33.00;24.84;99474.16;5013616;28;20408;-72
2022/06/06 06:28:12;;;;;;;8.35;5.15;;;;;;;33.67;24.34;99464.59;5016565;28;20070;-71
2022/06/06 06:30:44;;;;;;;8.25;5.50;;;;;;;34.57;23.34;99469.91;5001160;28;20043;-71
2022/06/06 06:33:24;;;;;;;4.97;4.50;;;;;;;35.46;21.56;99468.78;4996683;28;20565;-69
2022/06/06 06:35:54;;;;;;;6.60;5.00;;;;;;;35.79;22.05;99466.56;4995836;28;20055;-70
2022/06/06 06:38:22;;;;;;;9.18;6.03;;;;;;;35.61;21.95;99465.19;4996949;28;20131;-70
2022/06/06 06:41:12;;;;;;;7.90;5.82;;;;;;;35.45;21.49;99463.50;5012835;28;20048;-71
2022/06/06 06:43:49;;;;;;;8.23;5.32;;;;;;;35.24;21.77;99459.84;4981005;28;20139;-71
2022/06/06 06:46:20;;;;;;;6.45;4.80;;;;;;;35.08;21.08;99449.88;4996763;28;20079;-73
2022/06/06 06:48:48;;;;;;;7.13;4.50;;;;;;;34.07;21.91;99459.38;5078944;27;20046;-73
2022/06/06 06:51:31;;;;;;;8.05;4.70;;;;;;;32.91;22.64;99450.88;5101144;27;20523;-72
2022/06/06 06:54:17;;;;;;;5.55;4.95;;;;;;;33.33;23.29;99450.19;5102358;27;20039;-71
2022/06/06 06:56:48;;;;;;;7.40;4.85;;;;;;;34.27;21.78;99447.63;5085718;27;20099;-71
2022/06/06 06:59:31;;;;;;;7.70;4.32;;;;;;;34.13;21.69;99447.22;5091141;27;20046;-72
2022/06/06 07:08:35;;;;;;;6.80;5.07;;;;;;;32.16;23.95;99450.72;5120163;27;20066;-71
2022/06/06 07:11:09;;;;;;;6.75;5.18;;;;;;;32.80;23.35;99451.84;5121255;27;20049;-71
2022/06/06 07:13:40;;;;;;;5.22;4.20;;;;;;;32.84;23.15;99443.88;5103574;27;20053;-72
2022/06/06 07:16:14;;;;;;;9.10;5.10;;;;;;;33.08;23.17;99448.81;5121789;27;20103;-71
2022/06/06 07:18:42;;;;;;;5.28;4.78;;;;;;;34.21;22.24;99455.00;5127524;27;20046;-71
2022/06/06 07:21:09;;;;;;;9.98;6.97;;;;;;;35.59;20.85;99443.28;5128268;27;20065;-71
2022/06/06 07:23:39;;;;;;;6.20;5.13;;;;;;;37.01;19.28;99448.44;5124925;27;20511;-69
2022/06/06 07:26:06;;;;;;;5.88;4.63;;;;;;;37.62;18.79;99459.16;5119052;27;20043;-69
2022/06/06 07:28:31;;;;;;;10.40;5.75;;;;;;;36.72;19.69;99451.09;5119300;27;20042;-72
2022/06/06 07:31:31;;;;;;;5.97;5.35;;;;;;;36.02;20.29;99443.78;5064847;27;20039;-73
2022/06/06 07:34:16;;;;;;;7.43;5.28;;;;;;;36.65;19.59;99456.13;5117666;27;20050;-73
2022/06/06 07:36:59;;;;;;;10.98;7.95;;;;;;;37.55;19.81;99458.66;5117186;27;20117;-74
2022/06/06 07:39:35;;;;;;;10.55;6.28;;;;;;;38.98;18.16;99453.22;5117184;27;20441;-72
2022/06/06 07:42:23;;;;;;;8.45;5.00;;;;;;;40.19;16.93;99449.53;5117026;27;20046;-72
2022/06/06 07:45:12;;;;;;;21.30;8.57;;;;;;;39.09;17.23;99453.91;5081104;27;20038;-73
2022/06/06 07:48:01;;;;;;;6.22;5.35;;;;;;;37.04;18.11;99456.19;5097776;27;20102;-72
2022/06/06 07:50:45;;;;;;;6.88;5.55;;;;;;;36.29;19.05;99457.38;5117030;27;20066;-72
2022/06/06 07:53:18;;;;;;;8.32;6.18;;;;;;;36.35;18.99;99440.41;5081169;27;20083;-72
2022/06/06 07:56:04;;;;;;;7.07;5.20;;;;;;;35.82;19.20;99444.66;5117254;27;20091;-72
2022/06/06 07:58:32;;;;;;;9.52;5.75;;;;;;;34.10;21.30;99441.38;5116805;27;20042;-71
2022/06/06 08:01:21;;;;;;;16.02;7.68;;;;;;;32.90;22.70;99437.31;5098535;27;20057;-73
2022/06/06 08:04:08;;;;;;;8.57;5.45;;;;;;;31.15;23.92;99419.59;5098456;27;20049;-72
2022/06/06 08:06:39;;;;;;;6.13;5.53;;;;;;;31.44;24.56;99426.69;5106869;27;20035;-71
2022/06/06 08:09:25;;;;;;;8.75;5.60;;;;;;;33.98;22.16;99421.41;5127586;27;20046;-72
2022/06/06 08:12:00;;;;;;;6.78;5.05;;;;;;;36.81;19.28;99420.75;5127901;27;20030;-72
2022/06/06 08:14:49;;;;;;;7.75;6.00;;;;;;;39.20;17.20;99419.97;5084586;27;20046;-72
2022/06/06 08:17:24;;;;;;;6.82;6.22;;;;;;;40.89;15.43;99424.06;5099234;27;20125;-71
2022/06/06 08:20:20;;;;;;;8.93;6.93;;;;;;;42.11;14.64;99415.41;5097988;27;20046;-71
2022/06/06 08:22:45;;;;;;;8.93;8.02;;;;;;;43.02;14.10;99423.94;5117159;27;20042;-71
2022/06/06 08:25:14;;;;;;;9.57;7.80;;;;;;;44.01;13.16;99428.50;5080700;27;20133;-72
2022/06/06 08:27:47;;;;;;;8.50;7.38;;;;;;;44.21;12.50;99417.66;5116498;27;20054;-71
2022/06/06 08:30:13;;;;;;;8.10;7.28;;;;;;;43.21;13.19;99420.84;5116717;27;20038;-71
2022/06/06 08:32:37;;;;;;;7.05;6.35;;;;;;;42.67;13.52;99421.06;5116908;27;20038;-72
2022/06/06 08:35:02;;;;;;;8.02;7.30;;;;;;;42.26;13.69;99415.00;5116500;27;20050;-72
2022/06/06 08:37:53;;;;;;;7.78;7.18;;;;;;;43.26;13.25;99421.50;5081040;27;20038;-72
2022/06/06 08:40:32;;;;;;;10.65;7.60;;;;;;;44.26;12.68;99418.28;5097747;27;20043;-72
2022/06/06 08:43:18;;;;;;;8.90;8.00;;;;;;;44.68;11.63;99424.06;5098295;27;20062;-72
2022/06/06 08:45:51;;;;;;;7.57;6.97;;;;;;;43.73;12.28;99427.22;5098518;27;20121;-73
2022/06/06 08:48:41;;;;;;;7.68;7.07;;;;;;;44.06;12.30;99424.66;5116657;27;20401;-71
2022/06/06 08:51:40;;;;;;;8.10;7.50;;;;;;;44.80;11.45;99416.56;5116327;27;20074;-71
2022/06/06 08:54:23;;;;;;;7.07;6.47;;;;;;;42.65;13.89;99416.94;5098649;27;20042;-71
2022/06/06 08:57:13;;;;;;;7.97;6.43;;;;;;;39.72;15.04;99404.06;5104831;27;20051;-70
2022/06/06 08:59:55;;;;;;;6.60;6.10;;;;;;;38.72;16.42;99404.50;5125507;27;20095;-72
2022/06/06 09:02:51;;;;;;;6.40;5.80;;;;;;;39.94;15.25;99405.38;5125949;27;20129;-76
2022/06/06 09:05:40;;;;;;;8.52;7.10;;;;;;;39.93;14.91;99407.31;5102948;27;20031;-72
2022/06/06 09:08:33;;;;;;;8.70;6.43;;;;;;;38.63;15.96;99390.41;5080647;27;20042;-69
2022/06/06 09:11:55;;;;;;;5.78;5.28;;;;;;;36.43;17.23;99389.00;5116525;27;20373;-72
2022/06/06 09:14:47;;;;;;;6.43;5.47;;;;;;;34.48;19.98;99384.88;4999176;28;20108;-73
2022/06/06 09:17:35;;;;;;;7.10;5.65;;;;;;;36.10;18.83;99390.50;5016789;28;20128;-72
2022/06/06 09:20:21;;;;;;;7.30;5.40;;;;;;;38.66;15.91;99386.22;5016667;28;20507;-72
2022/06/06 09:23:15;;;;;;;5.82;5.43;;;;;;;41.71;13.91;99392.97;4966745;28;20053;-74
2022/06/06 09:26:06;;;;;;;5.70;5.30;;;;;;;44.52;11.58;99404.13;4999985;28;20051;-72
2022/06/06 09:28:51;;;;;;;8.50;7.70;;;;;;;46.87;10.06;99407.78;4999798;28;20135;-72
2022/06/06 09:31:19;;;;;;;9.15;8.55;;;;;;;48.08;9.71;99411.28;5000095;28;20111;-72
2022/06/06 09:34:08;;;;;;;12.80;12.05;;;;;;;49.52;8.54;99421.56;4999778;28;20423;-71
2022/06/06 09:36:59;;;;;;;15.10;13.35;;;;;;;50.72;8.19;99410.72;5015884;28;20083;-71
2022/06/06 09:39:46;;;;;;;16.30;15.30;;;;;;;51.25;7.85;99419.19;4999225;28;20576;-74
2022/06/06 09:42:33;;;;;;;18.58;17.48;;;;;;;51.54;8.05;99415.47;4964596;28;20296;-72
2022/06/06 09:45:30;;;;;;;19.17;17.92;;;;;;;51.78;7.32;99446.22;4986496;28;20029;-74
2022/06/06 09:48:11;;;;;;;20.50;19.40;;;;;;;50.69;7.67;99419.97;5017758;28;20063;-72
2022/06/06 09:51:04;;;;;;;20.42;19.35;;;;;;;51.61;8.02;99418.41;5000468;28;20045;-72
2022/06/06 09:59:49;;;;;;;27.52;26.05;;;;;;;53.22;6.85;99425.00;4998878;28;20141;-71
2022/06/06 10:02:41;;;;;;;29.95;28.27;;;;;;;53.89;6.96;99417.91;5015302;28;20064;-73
2022/06/06 10:05:36;;;;;;;32.08;30.13;;;;;;;54.78;5.96;99452.94;5015633;28;20041;-72
2022/06/06 10:08:19;;;;;;;39.08;37.03;;;;;;;54.87;6.04;99438.25;5026511;28;20055;-72
2022/06/06 10:11:03;;;;;;;31.05;29.52;;;;;;;52.68;6.88;99413.69;5001971;28;20049;-71
2022/06/06 10:13:37;;;;;;;23.65;22.23;;;;;;;50.02;8.24;99392.13;5035223;28;20052;-74
2022/06/06 10:16:04;;;;;;;15.93;14.93;;;;;;;47.13;9.94;99394.13;5017893;28;20053;-72
2022/06/06 10:18:36;;;;;;;17.40;15.90;;;;;;;44.05;11.34;99373.28;5025451;28;20106;-72
2022/06/06 10:21:22;;;;;;;10.30;9.50;;;;;;;41.40;12.73;99358.53;5002163;28;20041;-71
2022/06/06 10:24:18;;;;;;;8.32;7.72;;;;;;;42.05;12.74;99367.13;5074949;27;20051;-71
2022/06/06 10:26:56;;;;;;;9.13;8.43;;;;;;;44.43;11.40;99364.84;5118020;27;20038;-72
2022/06/06 10:32:35;;;;;;;8.50;7.80;;;;;;;43.95;11.65;99353.13;5119902;27;20551;-73
2022/06/06 10:35:37;;;;;;;10.13;6.47;;;;;;;41.98;12.79;99353.63;5101620;27;20129;-73
2022/06/06 10:38:03;;;;;;;6.03;5.53;;;;;;;38.61;15.10;99345.31;5121342;27;20047;-77
2022/06/06 10:41:25;;;;;;;6.07;4.97;;;;;;;36.90;15.92;99341.25;5110405;27;20051;-76
2022/06/06 10:44:35;;;;;;;5.25;4.75;;;;;;;34.75;17.79;99332.94;5035896;28;20040;-74
2022/06/06 10:47:23;;;;;;;6.25;4.35;;;;;;;33.06;20.55;99337.78;5012984;28;20045;-74
2022/06/06 10:50:23;;;;;;;4.65;4.00;;;;;;;32.01;21.34;99339.09;5004440;28;20168;-73
2022/06/06 10:53:15;;;;;;;4.60;3.83;;;;;;;31.14;21.63;99330.63;4940702;28;20426;-77
2022/06/06 10:55:52;;;;;;;3.90;3.50;;;;;;;30.29;22.34;99327.91;4942427;28;20504;-72
2022/06/06 10:58:54;;;;;;;4.28;3.33;;;;;;;29.63;23.02;99321.00;4939501;28;20510;-71
2022/06/06 11:01:45;;;;;;;5.57;3.58;;;;;;;28.88;23.95;99326.34;4906117;28;20046;-73
2022/06/06 11:04:25;;;;;;;4.50;3.22;;;;;;;28.23;25.43;99323.44;4936712;28;20043;-71
2022/06/06 11:07:28;;;;;;;4.40;3.35;;;;;;;27.65;26.83;99321.19;4936098;28;20109;-73
2022/06/06 11:10:23;;;;;;;4.20;3.20;;;;;;;27.01;26.02;99319.69;4920324;28;20038;-72
2022/06/06 11:13:12;;;;;;;6.28;4.05;;;;;;;26.70;26.88;99320.53;4931650;28;20038;-71
2022/06/06 11:15:41;;;;;;;14.55;6.35;;;;;;;26.17;28.16;99314.53;4992245;28;20057;-71
2022/06/06 11:18:18;;;;;;;7.28;4.70;;;;;;;26.06;27.67;99311.66;5021303;28;20049;-72
2022/06/06 11:21:19;;;;;;;3.40;2.90;;;;;;;25.84;27.89;99311.09;5036321;28;20453;-70
2022/06/06 11:23:56;;;;;;;3.17;2.88;;;;;;;25.59;28.34;99311.78;5016339;28;20163;-71
2022/06/06 11:26:53;;;;;;;10.30;5.45;;;;;;;25.46;29.04;99308.25;5019619;27;20054;-72
2022/06/06 11:29:27;;;;;;;15.38;8.38;;;;;;;25.26;30.02;99302.84;5098271;27;20042;-71
2022/06/06 11:32:15;;;;;;;6.63;4.00;;;;;;;25.21;29.55;99297.16;5079350;27;20115;-69
2022/06/06 11:34:58;;;;;;;10.30;3.40;;;;;;;25.19;28.59;99300.09;5096977;27;20039;-68
2022/06/06 11:37:54;;;;;;;5.80;4.70;;;;;;;25.11;29.07;99299.47;5049833;27;20046;-66
2022/06/06 11:40:28;;;;;;;5.13;3.40;;;;;;;24.88;29.33;99294.44;5064645;27;20066;-66
2022/06/06 11:43:38;;;;;;;7.63;3.70;;;;;;;24.72;29.83;99294.88;5083670;27;20075;-67
2022/06/06 11:46:17;;;;;;;5.82;3.10;;;;;;;24.44;30.06;99292.31;5099024;27;20042;-66
2022/06/06 11:49:09;;;;;;;4.18;3.03;;;;;;;24.30;30.10;99290.59;5081449;27;20093;-71
2022/06/06 11:51:58;;;;;;;3.78;2.70;;;;;;;24.19;30.20;99275.66;5099036;27;20049;-67
2022/06/06 11:54:26;;;;;;;4.15;2.95;;;;;;;24.14;29.96;99280.91;5116894;27;20050;-67
2022/06/06 11:57:26;;;;;;;6.10;3.40;;;;;;;24.24;30.20;99278.66;5116561;27;20039;-69
2022/06/06 12:00:06;;;;;;;7.95;3.55;;;;;;;24.30;31.22;99280.53;5097962;27;20046;-67
2022/06/06 12:02:55;;;;;;;11.85;5.40;;;;;;;24.25;30.01;99274.88;5098121;27;20038;-68
2022/06/06 12:06:00;;;;;;;13.82;5.25;;;;;;;24.33;30.19;99274.69;5117367;27;20046;-75
2022/06/06 12:08:36;;;;;;;23.77;7.18;;;;;;;24.28;30.35;99279.91;5116368;27;20091;-67
2022/06/06 12:11:30;;;;;;;18.85;5.45;;;;;;;24.31;29.92;99270.47;5097959;27;20046;-66
2022/06/06 12:14:14;;;;;;;9.37;5.17;;;;;;;24.18;30.39;99266.66;5012707;28;20124;-67
2022/06/06 12:17:21;;;;;;;4.55;2.63;;;;;;;24.11;29.45;99265.81;5013508;28;20235;-67
2022/06/06 12:20:09;;;;;;;5.40;3.22;;;;;;;23.94;29.73;99255.47;4961000;28;20033;-66
2022/06/06 12:22:52;;;;;;;5.78;3.55;;;;;;;23.64;29.00;99244.06;4994269;28;20041;-68
2022/06/06 12:25:26;;;;;;;4.93;2.67;;;;;;;23.67;29.84;99257.28;4977278;28;20456;-67
2022/06/06 12:28:41;;;;;;;2.80;2.20;;;;;;;23.67;30.44;99257.28;4993573;28;20076;-68
2022/06/06 12:31:08;;;;;;;;;;;;;;;23.77;29.41;99255.00;4993558;28;20510;-67
2022/06/06 12:33:54;;;;;;;3.97;2.80;;;;;;;23.57;29.60;99268.53;4976387;28;19998;-68
2022/06/06 12:36:27;;;;;;;8.40;3.92;;;;;;;23.31;30.61;99273.78;4976917;28;20116;-68
2022/06/06 12:39:05;;;;;;;7.95;3.38;;;;;;;23.18;30.85;99271.84;4992146;28;20053;-69
2022/06/06 12:42:01;;;;;;;8.40;3.75;;;;;;;23.02;30.63;99274.88;4993116;28;20037;-66
2022/06/06 12:44:59;;;;;;;11.23;3.42;;;;;;;22.91;31.28;99270.78;4992768;28;20144;-67
2022/06/06 12:47:38;;;;;;;2.10;1.98;;;;;;;22.76;30.27;99270.91;4952536;28;20041;-68
2022/06/06 12:50:08;;;;;;;4.88;3.70;;;;;;;22.76;31.13;99265.47;5012074;28;20047;-67